Aeroporto :
LOGIN :

Iscrizione | Disclaimer

   EN    FR    IT 

 










Sommario :    VFR   VFR Marginale   IFR   IFR Intensivo   IFR Molto Intensivo
Visibilità : 
Base nubi : 
>= 8 km
>= 3000ft
5 / 8 km
1000 / 3000 ft
1500m / 5 km
500 / 1000 ft
800 / 1500m
200 / 500 ft
< 800m
< 200 ft
Simboli :   Temporali  Nebbia  Neve Forte  Precipitazioni Forti  Vento > 20 kt
SIGMETs :   Varie  Temporali  Ghiacco  Turbolenza  Onda orograficha  Ceneri Vulcaniche







- Altitudine del aeroporto : 291 ft
- Codice IATA : ORY
- Carte del aeroporto


LFPO - Paris-Orly

ULTIMO METAR :
  • 250830Z 36006KT 310V050 CAVOK 21/14 Q1017 NOSIG

METARs OBSOLETI :
  • 250800Z 03006KT 350V050 CAVOK 21/14 Q1017 NOSIG
  • 250730Z 01006KT CAVOK 20/14 Q1017 NOSIG
  • 250700Z 36006KT 330V060 CAVOK 19/14 Q1017 NOSIG
  • 250630Z 36006KT 330V040 CAVOK 18/14 Q1017 NOSIG
  • 250600Z 36005KT 330V040 CAVOK 16/14 Q1017 NOSIG

TAF TAF LFPO
Valido dal 25 a 06 ore il 26 a 12 ore UTC


250500Z 2506/2612 35003KT CAVOK
TEMPO 2512/2523 SCT040TCU
PROB40
TEMPO 2513/2522 3500 TSRA SCT035CB
PROB30
TEMPO 2515/2522 VRB15G30KT 2000 TSGR BKN009 BKN030CB
BECMG 2606/2609 09010KT
ATIS : +33 1 49 75 65 80
Nessun NOTAM noto per questo aeroporto.



MetMap, La meteo Aeronautica in un colpo d'occhio ! - Copyright ORBIFLY Dicembre 2007 - Disclaimer

ORBIFLY MET'MAP TEAM :

Programmazione e sviluppo : Alexandra Zaïnal
Concezione e sviluppo : Baudouin d'Aumeries
Co-Programmazione e sviluppo : Marc-Olivier Méhu
Supporto tecnico e logistico : Manuel Goepfert
Aiuto per la traduzione : Arnaldo La Scala

Contatto : metmap@orbifly.com




FONTI E CREDITI :

   NOAA